Terminal Aerodrome Forecast
Issued by NWS Lake Charles, LA

Current Version | Previous Version | Text Only | Print | Product List | Glossary On
Versions: 1 2 3 4 5 6 7 8 9 10 11 12 13 14
867
FTUS44 KLCH 070520
TAFLFT
TAF
KLFT 070520Z 0706/0806 00000KT P6SM SKC
      TEMPO 0709/0713 3SM BR
     FM072000 20007KT P6SM SKC=

USA.gov is the U.S. government's official web portal to all federal, state and local government web resources and services.